createdAt,value
2022-08-26T00:00:51.875Z,100
2022-08-26T00:01:55.862Z,100
2022-08-26T00:02:53.621Z,100
2022-08-26T00:03:54.128Z,100
2022-08-26T00:04:54.464Z,100
2022-08-26T00:05:54.888Z,100
2022-08-26T00:06:56.032Z,100
2022-08-26T00:07:56.012Z,100
2022-08-26T00:08:56.235Z,100
2022-08-26T00:09:56.871Z,100
2022-08-26T00:10:57.255Z,100
2022-08-26T00:11:57.568Z,100
2022-08-26T00:12:58.402Z,100
2022-08-26T00:13:58.716Z,100
2022-08-26T00:14:58.990Z,100
2022-08-26T00:15:59.758Z,100
2022-08-26T00:17:00.022Z,100
2022-08-26T00:18:00.274Z,100
2022-08-26T00:19:01.114Z,100
2022-08-26T00:20:01.737Z,100
2022-08-26T00:21:01.752Z,100
2022-08-26T00:22:04.516Z,100
2022-08-26T00:23:04.380Z,100
2022-08-26T00:24:05.328Z,100
2022-08-26T00:25:07.997Z,100
2022-08-26T00:26:07.093Z,100
2022-08-26T00:27:07.095Z,100
2022-08-26T00:28:07.815Z,100
2022-08-26T00:29:08.753Z,100
2022-08-26T00:30:12.144Z,100
2022-08-26T00:31:11.127Z,100
2022-08-26T00:32:10.243Z,100
2022-08-26T00:33:10.838Z,100
2022-08-26T00:34:11.230Z,100
2022-08-26T00:35:11.853Z,100
2022-08-26T00:36:19.888Z,100
2022-08-26T00:37:16.126Z,100
2022-08-26T00:38:14.645Z,100
2022-08-26T00:39:14.341Z,100
2022-08-26T00:41:19.717Z,100
2022-08-26T00:42:17.120Z,100
2022-08-26T00:43:18.262Z,100
2022-08-26T00:44:18.371Z,100
2022-08-26T00:45:19.003Z,100
2022-08-26T00:46:23.711Z,100
2022-08-26T00:47:27.713Z,100
2022-08-26T00:48:31.800Z,100
2022-08-26T00:50:31.217Z,100
2022-08-26T00:51:29.777Z,100
2022-08-26T00:52:30.497Z,100
2022-08-26T00:53:34.512Z,100
2022-08-26T00:54:38.305Z,100
2022-08-26T00:55:40.965Z,100
2022-08-26T00:57:43.741Z,100
2022-08-26T00:58:44.693Z,100
2022-08-26T00:59:48.368Z,100
2022-08-26T01:00:45.961Z,100
2022-08-26T01:01:46.915Z,100
2022-08-26T01:02:49.245Z,100
2022-08-26T01:03:48.402Z,100
2022-08-26T01:04:48.623Z,100
2022-08-26T01:05:55.376Z,100
2022-08-26T01:06:54.873Z,100
2022-08-26T01:07:53.843Z,100
2022-08-26T01:08:54.575Z,100
2022-08-26T01:09:55.706Z,100
2022-08-26T01:10:57.243Z,100
2022-08-26T01:11:57.349Z,100
2022-08-26T01:13:00.535Z,100
2022-08-26T01:14:00.643Z,100
2022-08-26T01:15:00.770Z,100
2022-08-26T01:16:04.944Z,100
2022-08-26T01:17:05.095Z,100
2022-08-26T01:18:06.503Z,100
2022-08-26T01:20:19.013Z,100
2022-08-26T01:23:18.642Z,100
2022-08-26T01:24:19.854Z,100
2022-08-26T01:25:21.393Z,100
2022-08-26T01:27:22.030Z,100
2022-08-26T01:29:26.043Z,100
2022-08-26T01:30:27.891Z,100
2022-08-26T01:32:29.327Z,100
2022-08-26T01:34:36.011Z,100
2022-08-26T01:35:33.546Z,100
2022-08-26T01:36:33.964Z,100
2022-08-26T01:37:39.004Z,100
2022-08-26T01:38:38.691Z,100
2022-08-26T01:39:39.313Z,100
2022-08-26T01:40:40.336Z,100
2022-08-26T01:41:40.142Z,100
2022-08-26T01:42:42.629Z,100
2022-08-26T01:43:45.071Z,100
2022-08-26T01:45:49.241Z,100
2022-08-26T01:46:50.730Z,100
2022-08-26T01:47:57.099Z,100
2022-08-26T01:48:52.381Z,100
2022-08-26T01:49:55.244Z,100
2022-08-26T01:50:53.825Z,100
2022-08-26T01:51:55.263Z,100
2022-08-26T01:52:55.172Z,100
2022-08-26T01:53:54.664Z,100
2022-08-26T01:54:55.905Z,100
2022-08-26T01:55:58.986Z,100
2022-08-26T01:56:56.530Z,100
2022-08-26T01:57:57.580Z,100
2022-08-26T01:59:01.170Z,100
2022-08-26T02:00:01.883Z,100
2022-08-26T02:00:59.997Z,100
2022-08-26T02:01:59.832Z,100
2022-08-26T02:03:00.912Z,100
2022-08-26T02:05:05.485Z,100
2022-08-26T02:06:09.156Z,100
2022-08-26T02:07:09.661Z,100
2022-08-26T02:08:08.059Z,100
2022-08-26T02:09:08.269Z,100
2022-08-26T02:10:09.206Z,100
2022-08-26T02:11:09.309Z,100
2022-08-26T02:12:12.188Z,100
2022-08-26T02:13:11.587Z,100
2022-08-26T02:15:15.812Z,100
2022-08-26T02:16:19.830Z,100
2022-08-26T02:17:18.372Z,100
2022-08-26T02:18:19.395Z,100
2022-08-26T02:19:26.993Z,100
2022-08-26T02:20:20.959Z,100
2022-08-26T02:21:20.021Z,100
2022-08-26T02:22:24.690Z,100
2022-08-26T02:23:24.505Z,100
2022-08-26T02:24:27.791Z,100
2022-08-26T02:26:27.543Z,100
2022-08-26T02:30:35.442Z,100
2022-08-26T02:31:35.690Z,100
2022-08-26T02:32:35.871Z,100
2022-08-26T02:33:36.093Z,100
2022-08-26T02:34:36.623Z,100
2022-08-26T02:35:37.842Z,100
2022-08-26T02:36:38.349Z,100
2022-08-26T02:37:37.747Z,100
2022-08-26T02:38:38.272Z,100
2022-08-26T02:39:40.847Z,100
2022-08-26T02:40:41.160Z,100
2022-08-26T02:41:45.156Z,100
2022-08-26T02:42:42.804Z,100
2022-08-26T02:43:43.315Z,100
2022-08-26T02:44:43.626Z,100
2022-08-26T02:45:44.143Z,100
2022-08-26T02:46:47.064Z,100
2022-08-26T02:47:44.776Z,100
2022-08-26T02:48:44.996Z,100
2022-08-26T02:49:47.198Z,100
2022-08-26T02:50:46.226Z,100
2022-08-26T02:51:46.850Z,100
2022-08-26T02:52:46.966Z,100
2022-08-26T02:53:46.973Z,100
2022-08-26T02:54:47.602Z,100
2022-08-26T02:55:47.696Z,100
2022-08-26T02:56:48.828Z,100
2022-08-26T02:57:48.654Z,100
2022-08-26T02:58:49.052Z,100
2022-08-26T02:59:49.358Z,100
2022-08-26T03:00:52.791Z,100
2022-08-26T03:01:51.449Z,100
2022-08-26T03:02:51.340Z,100
2022-08-26T03:03:52.022Z,100
2022-08-26T03:04:57.725Z,100
2022-08-26T03:05:54.933Z,100
2022-08-26T03:06:55.280Z,100
2022-08-26T03:07:54.940Z,100
2022-08-26T03:08:55.668Z,100
2022-08-26T03:09:55.894Z,100
2022-08-26T03:10:56.185Z,100
2022-08-26T03:11:56.610Z,100
2022-08-26T03:12:57.025Z,100
2022-08-26T03:13:57.851Z,100
2022-08-26T03:14:57.640Z,100
2022-08-26T03:16:00.237Z,100
2022-08-26T03:16:58.704Z,100
2022-08-26T03:17:58.893Z,100
2022-08-26T03:19:00.358Z,100
2022-08-26T03:19:59.950Z,100
2022-08-26T03:21:08.745Z,100
2022-08-26T03:22:01.173Z,100
2022-08-26T03:23:01.649Z,100
2022-08-26T03:24:02.104Z,100
2022-08-26T03:25:03.957Z,100
2022-08-26T03:26:03.252Z,100
2022-08-26T03:27:05.875Z,100
2022-08-26T03:28:04.798Z,100
2022-08-26T03:29:06.865Z,100
2022-08-26T03:30:07.583Z,100
2022-08-26T03:31:09.483Z,100
2022-08-26T03:32:09.645Z,100
2022-08-26T03:33:10.891Z,100
2022-08-26T03:34:11.293Z,100
2022-08-26T03:35:11.601Z,100
2022-08-26T03:36:11.311Z,100
2022-08-26T03:37:11.622Z,100
2022-08-26T03:38:12.035Z,100
2022-08-26T03:39:13.482Z,100
2022-08-26T03:40:13.224Z,100
2022-08-26T03:41:13.279Z,100
2022-08-26T03:42:13.390Z,100
2022-08-26T03:43:15.238Z,100
2022-08-26T03:44:14.326Z,100
2022-08-26T03:45:15.971Z,100
2022-08-26T03:46:15.401Z,100
2022-08-26T03:47:15.483Z,100
2022-08-26T03:48:15.791Z,100
2022-08-26T03:49:16.100Z,100
2022-08-26T03:50:22.650Z,100
2022-08-26T03:51:20.619Z,100
2022-08-26T03:52:21.039Z,100
2022-08-26T03:53:21.359Z,100
2022-08-26T03:54:21.690Z,100
2022-08-26T03:55:27.410Z,100
2022-08-26T03:56:24.963Z,100
2022-08-26T03:57:25.172Z,100
2022-08-26T03:58:25.383Z,100
2022-08-26T03:59:26.302Z,100
2022-08-26T04:00:26.220Z,100
2022-08-26T04:01:27.916Z,100
2022-08-26T04:02:27.695Z,100
2022-08-26T04:03:27.925Z,100
2022-08-26T04:04:27.763Z,100
2022-08-26T04:05:28.326Z,100
2022-08-26T04:07:28.823Z,100
2022-08-26T04:08:29.743Z,100
2022-08-26T04:09:29.961Z,100
2022-08-26T04:10:30.467Z,100
2022-08-26T04:11:34.144Z,100
2022-08-26T04:12:32.840Z,100
2022-08-26T04:13:33.360Z,100
2022-08-26T04:14:33.594Z,100
2022-08-26T04:15:33.922Z,100
2022-08-26T04:16:35.215Z,100
2022-08-26T04:17:34.924Z,100
2022-08-26T04:18:37.264Z,100
2022-08-26T04:19:35.469Z,100
2022-08-26T04:20:36.376Z,100
2022-08-26T04:21:36.384Z,100
2022-08-26T04:22:36.702Z,100
2022-08-26T04:23:47.323Z,100
2022-08-26T04:24:40.403Z,100
2022-08-26T04:25:41.022Z,100
2022-08-26T04:26:42.581Z,100
2022-08-26T04:27:41.854Z,100
2022-08-26T04:28:42.160Z,100
2022-08-26T04:29:42.472Z,100
2022-08-26T04:30:42.792Z,100
2022-08-26T04:31:43.261Z,100
2022-08-26T04:32:43.643Z,100
2022-08-26T04:33:47.444Z,100
2022-08-26T04:34:47.321Z,100
2022-08-26T04:35:48.272Z,100
2022-08-26T04:36:48.047Z,100
2022-08-26T04:37:48.566Z,100
2022-08-26T04:38:48.779Z,100
2022-08-26T04:39:53.456Z,100
2022-08-26T04:40:50.862Z,100
2022-08-26T04:41:51.370Z,100
2022-08-26T04:42:51.689Z,100
2022-08-26T04:43:52.406Z,100
2022-08-26T04:44:52.499Z,100
2022-08-26T04:45:53.843Z,100
2022-08-26T04:46:54.337Z,100
2022-08-26T04:47:55.600Z,100
2022-08-26T04:48:54.375Z,100
2022-08-26T04:49:57.455Z,100
2022-08-26T04:50:55.209Z,100
2022-08-26T04:51:55.419Z,100
2022-08-26T04:52:55.760Z,100
2022-08-26T04:53:57.800Z,100
2022-08-26T04:54:56.689Z,100
2022-08-26T04:55:57.089Z,100
2022-08-26T04:56:57.380Z,100
2022-08-26T04:57:58.022Z,100
2022-08-26T04:58:58.443Z,100
2022-08-26T04:59:58.545Z,100
2022-08-26T05:00:58.995Z,100
2022-08-26T05:01:59.335Z,100
2022-08-26T05:02:59.790Z,100
2022-08-26T05:04:01.382Z,100
2022-08-26T05:05:02.972Z,100
2022-08-26T05:06:05.363Z,100
2022-08-26T05:07:03.812Z,100
2022-08-26T05:08:04.225Z,100
2022-08-26T05:09:04.538Z,100
2022-08-26T05:10:05.566Z,100
2022-08-26T05:11:07.213Z,100
2022-08-26T05:12:07.629Z,100
2022-08-26T05:13:11.108Z,100
2022-08-26T05:14:09.758Z,100
2022-08-26T05:15:10.923Z,100
2022-08-26T05:16:12.723Z,100
2022-08-26T05:17:10.838Z,100
2022-08-26T05:18:14.535Z,100
2022-08-26T05:19:12.905Z,100
2022-08-26T05:20:13.321Z,100
2022-08-26T05:21:27.660Z,100
2022-08-26T05:22:15.280Z,100
2022-08-26T05:23:16.571Z,100
2022-08-26T05:24:17.138Z,100
2022-08-26T05:25:16.830Z,100
2022-08-26T05:26:17.857Z,100
2022-08-26T05:27:20.629Z,100
2022-08-26T05:28:22.068Z,100
2022-08-26T05:29:21.366Z,100
2022-08-26T05:30:21.983Z,100
2022-08-26T05:31:31.052Z,100
2022-08-26T05:32:23.630Z,100
2022-08-26T05:33:24.563Z,100
2022-08-26T05:34:25.753Z,100
2022-08-26T05:35:29.284Z,100
2022-08-26T05:36:30.523Z,100
2022-08-26T05:37:29.301Z,100
2022-08-26T05:38:30.254Z,100
2022-08-26T05:39:32.687Z,100
2022-08-26T05:40:35.917Z,100
2022-08-26T05:41:38.442Z,100
2022-08-26T05:42:36.322Z,100
2022-08-26T05:43:36.406Z,100
2022-08-26T05:44:55.332Z,100
2022-08-26T05:46:44.093Z,100
2022-08-26T05:47:43.211Z,100
2022-08-26T05:48:44.347Z,100
2022-08-26T05:49:51.445Z,100
2022-08-26T05:50:47.507Z,100
2022-08-26T05:51:45.975Z,100
2022-08-26T05:52:45.281Z,100
2022-08-26T05:53:54.567Z,100
2022-08-26T05:54:47.943Z,100
2022-08-26T05:55:52.972Z,100
2022-08-26T05:56:53.895Z,100
2022-08-26T05:57:51.135Z,100
2022-08-26T05:58:51.767Z,100
2022-08-26T05:59:51.977Z,100
2022-08-26T06:01:55.805Z,100
2022-08-26T06:02:56.173Z,100
2022-08-26T06:04:02.127Z,100
2022-08-26T06:04:59.892Z,100
2022-08-26T06:06:10.755Z,100
2022-08-26T06:07:03.344Z,100
2022-08-26T06:08:04.003Z,100
2022-08-26T06:09:06.162Z,100
2022-08-26T06:10:30.911Z,100
2022-08-26T06:11:18.607Z,100
2022-08-26T06:12:11.323Z,100
2022-08-26T06:13:12.128Z,100
2022-08-26T06:14:11.844Z,100
2022-08-26T06:15:12.458Z,100
2022-08-26T06:16:16.020Z,100
2022-08-26T06:17:14.001Z,100
2022-08-26T06:18:16.668Z,100
2022-08-26T06:19:15.455Z,100
2022-08-26T06:20:15.143Z,100
2022-08-26T06:22:21.895Z,100
2022-08-26T06:23:21.204Z,100
2022-08-26T06:24:21.420Z,100
2022-08-26T06:25:24.726Z,100
2022-08-26T06:26:25.219Z,100
2022-08-26T06:27:28.351Z,100
2022-08-26T06:28:29.951Z,100
2022-08-26T06:29:32.819Z,100
2022-08-26T06:30:30.365Z,100
2022-08-26T06:31:32.955Z,100
2022-08-26T06:32:30.998Z,100
2022-08-26T06:33:31.307Z,100
2022-08-26T06:34:32.343Z,100
2022-08-26T06:35:40.342Z,100
2022-08-26T06:36:34.704Z,100
2022-08-26T06:37:34.094Z,100
2022-08-26T06:38:34.727Z,100
2022-08-26T06:39:35.033Z,100
2022-08-26T06:40:42.623Z,100
2022-08-26T06:41:39.079Z,100
2022-08-26T06:42:41.098Z,100
2022-08-26T06:43:40.490Z,100
2022-08-26T06:44:41.188Z,100
2022-08-26T06:45:41.423Z,100
2022-08-26T06:46:42.510Z,100
2022-08-26T06:47:42.355Z,100
2022-08-26T06:48:43.084Z,100
2022-08-26T06:49:44.331Z,100
2022-08-26T06:50:43.709Z,100
2022-08-26T06:51:43.927Z,100
2022-08-26T06:52:44.181Z,100
2022-08-26T06:53:46.398Z,100
2022-08-26T06:54:44.961Z,100
2022-08-26T06:55:46.403Z,100
2022-08-26T06:56:45.590Z,100
2022-08-26T06:57:46.312Z,100
2022-08-26T06:58:46.832Z,100
2022-08-26T06:59:46.834Z,100
2022-08-26T07:00:47.645Z,100
2022-08-26T07:01:47.581Z,100
2022-08-26T07:02:48.215Z,100
2022-08-26T07:03:50.654Z,100
2022-08-26T07:04:51.063Z,100
2022-08-26T07:05:49.342Z,100
2022-08-26T07:06:53.514Z,100
2022-08-26T07:07:51.395Z,100
2022-08-26T07:08:53.865Z,100
2022-08-26T07:09:52.743Z,100
2022-08-26T07:10:52.860Z,100
2022-08-26T07:11:54.200Z,100
2022-08-26T07:12:54.093Z,100
2022-08-26T07:13:54.612Z,100
2022-08-26T07:14:54.923Z,100
2022-08-26T07:15:57.260Z,100
2022-08-26T07:16:55.664Z,100
2022-08-26T07:17:55.971Z,100
2022-08-26T07:18:57.416Z,100
2022-08-26T07:19:57.015Z,100
2022-08-26T07:20:57.107Z,99.87
2022-08-26T07:21:57.938Z,99.47
2022-08-26T07:22:57.851Z,99.13
2022-08-26T07:24:01.436Z,99.33
2022-08-26T07:24:59.289Z,99.12
2022-08-26T07:26:03.809Z,99.09
2022-08-26T07:27:05.439Z,99.3
2022-08-26T07:28:03.927Z,98.62
2022-08-26T07:29:04.030Z,98.58
2022-08-26T07:30:06.595Z,97.56
2022-08-26T07:31:09.818Z,96.44
2022-08-26T07:32:08.763Z,97.86
2022-08-26T07:33:08.125Z,96.81
2022-08-26T07:34:08.162Z,97.52
2022-08-26T07:35:08.980Z,97.53
2022-08-26T07:36:10.725Z,97.84
2022-08-26T07:37:09.623Z,96.88
2022-08-26T07:38:09.924Z,96.7
2022-08-26T07:39:10.343Z,96.86
2022-08-26T07:40:10.697Z,96.81
2022-08-26T07:41:12.707Z,95.95
2022-08-26T07:42:13.736Z,96.16
2022-08-26T07:43:11.596Z,95.91
2022-08-26T07:44:12.112Z,95.73
2022-08-26T07:45:12.438Z,95.61
2022-08-26T07:46:16.441Z,95.68
2022-08-26T07:47:25.703Z,96.85
2022-08-26T07:48:18.899Z,96.04
2022-08-26T07:49:19.379Z,96.47
2022-08-26T07:50:19.798Z,96.25
2022-08-26T07:51:21.479Z,95.47
2022-08-26T07:52:25.346Z,95.95
2022-08-26T07:53:24.460Z,96.26
2022-08-26T07:54:27.035Z,96.22
2022-08-26T07:55:24.791Z,94.36
2022-08-26T07:56:25.811Z,93.52
2022-08-26T07:57:26.843Z,93.39
2022-08-26T07:58:26.131Z,94.46
2022-08-26T07:59:26.452Z,94.23
2022-08-26T08:00:26.880Z,94.54
2022-08-26T08:01:27.944Z,92.64
2022-08-26T08:02:28.823Z,94.11
2022-08-26T08:03:28.524Z,92.4
2022-08-26T08:04:28.532Z,91.77
2022-08-26T08:05:33.372Z,91.59
2022-08-26T08:06:31.511Z,90.84
2022-08-26T08:07:44.461Z,89.73
2022-08-26T08:08:32.957Z,88.99
2022-08-26T08:09:33.279Z,89.31
2022-08-26T08:10:35.018Z,88.28
2022-08-26T08:11:34.305Z,87.94
2022-08-26T08:12:34.722Z,86.73
2022-08-26T08:13:34.933Z,87.14
2022-08-26T08:14:35.663Z,88.23
2022-08-26T08:15:36.279Z,87.02
2022-08-26T08:16:39.129Z,86.14
2022-08-26T08:17:41.217Z,86.08
2022-08-26T08:18:40.561Z,86.17
2022-08-26T08:19:41.125Z,86.51
2022-08-26T08:20:44.665Z,85.44
2022-08-26T08:21:45.124Z,85.95
2022-08-26T08:22:45.641Z,87.49
2022-08-26T08:23:45.962Z,87.94
2022-08-26T08:24:46.166Z,87.9
2022-08-26T08:25:47.916Z,86.31
2022-08-26T08:26:48.024Z,87.51
2022-08-26T08:27:49.054Z,85.05
2022-08-26T08:28:49.368Z,86.42
2022-08-26T08:29:49.268Z,87.06
2022-08-26T08:30:49.620Z,86.67
2022-08-26T08:31:56.983Z,87.12
2022-08-26T08:32:51.855Z,86.82
2022-08-26T08:33:51.043Z,86.49
2022-08-26T08:34:51.726Z,86.71
2022-08-26T08:35:52.688Z,85.71
2022-08-26T08:36:53.305Z,84.92
2022-08-26T08:37:53.117Z,84.53
2022-08-26T08:38:52.710Z,85.37
2022-08-26T08:39:53.156Z,85.03
2022-08-26T08:40:53.848Z,85.13
2022-08-26T08:43:11.280Z,84.4
2022-08-26T08:44:01.549Z,84.17
2022-08-26T08:45:05.650Z,86.26
2022-08-26T08:46:12.907Z,85.21
2022-08-26T08:47:18.068Z,86.18
2022-08-26T08:49:13.983Z,86.29
2022-08-26T08:54:21.986Z,85.71
2022-08-26T08:55:20.464Z,85.85
2022-08-26T08:59:34.105Z,83.7
2022-08-26T09:05:48.840Z,82.98
2022-08-26T09:06:48.934Z,83.8
2022-08-26T09:07:55.771Z,85.47
2022-08-26T09:08:50.763Z,83.85
2022-08-26T09:09:54.715Z,83.18
2022-08-26T09:10:58.455Z,83.28
2022-08-26T09:11:56.721Z,81.97
2022-08-26T09:12:57.163Z,82.26
2022-08-26T09:13:57.151Z,83.62
2022-08-26T09:15:05.041Z,83.12
2022-08-26T09:21:15.023Z,81.56
2022-08-26T09:23:15.948Z,82.97
2022-08-26T09:24:15.536Z,84.13
2022-08-26T09:25:16.478Z,83.96
2022-08-26T09:26:27.174Z,84.96
2022-08-26T09:28:25.298Z,83.89
2022-08-26T09:31:31.754Z,83.7
2022-08-26T09:32:29.413Z,82.84
2022-08-26T09:33:32.593Z,82.02
2022-08-26T09:34:31.170Z,82.86
2022-08-26T09:35:43.259Z,81.78
2022-08-26T09:38:34.577Z,80.3
2022-08-26T09:39:38.209Z,80.12
2022-08-26T09:40:36.697Z,80.34
2022-08-26T09:41:36.019Z,83.63
2022-08-26T09:42:36.542Z,83.43
2022-08-26T09:43:36.756Z,83.47
2022-08-26T09:45:40.919Z,83.34
2022-08-26T09:46:47.027Z,82.49
2022-08-26T09:48:51.805Z,80.13
2022-08-26T09:49:59.960Z,79.35
2022-08-26T09:51:00.870Z,80.27
2022-08-26T09:59:11.667Z,79.02
2022-08-26T10:04:24.264Z,78.06
2022-08-26T10:06:26.790Z,77.15
2022-08-26T10:08:41.141Z,76.45
2022-08-26T10:09:41.123Z,76.98
2022-08-26T10:10:40.934Z,77.46
2022-08-26T10:11:52.101Z,77.53
2022-08-26T10:20:23.331Z,75.89
2022-08-26T10:21:07.640Z,76.56
2022-08-26T10:23:18.803Z,74.2
2022-08-26T10:24:15.937Z,73.87
2022-08-26T10:25:17.905Z,75.55
2022-08-26T10:33:34.632Z,79.91
2022-08-26T10:34:35.045Z,78.2
2022-08-26T10:37:48.877Z,77.6
2022-08-26T10:38:41.543Z,77.15
2022-08-26T10:41:53.430Z,74.71
2022-08-26T10:43:08.486Z,75.29
2022-08-26T10:48:12.720Z,75.26
2022-08-26T10:49:13.028Z,75.05
2022-08-26T10:50:11.286Z,76.95
2022-08-26T10:51:15.194Z,76.27
2022-08-26T11:05:44.365Z,74.84
2022-08-26T11:06:44.674Z,75.18
2022-08-26T11:08:51.652Z,73.67
2022-08-26T11:09:51.245Z,72.62
2022-08-26T11:10:59.267Z,72.14
2022-08-26T11:11:51.975Z,71.86
2022-08-26T11:13:00.701Z,72.01
2022-08-26T11:14:04.787Z,73.75
2022-08-26T11:14:58.682Z,71.61
2022-08-26T11:15:58.664Z,72.43
2022-08-26T11:16:59.748Z,71.6
2022-08-26T11:18:05.329Z,71.73
2022-08-26T11:19:03.399Z,72.03
2022-08-26T11:20:08.588Z,71.27
2022-08-26T11:25:30.066Z,73.12
2022-08-26T11:26:35.831Z,71.85
2022-08-26T11:30:43.502Z,72.49
2022-08-26T11:34:56.839Z,72.37
2022-08-26T11:35:54.386Z,70.71
2022-08-26T11:36:59.004Z,70.21
2022-08-26T11:38:04.231Z,69.41
2022-08-26T11:38:57.884Z,69.38
2022-08-26T11:39:57.781Z,67.67
2022-08-26T11:41:09.887Z,68.36
2022-08-26T11:44:09.097Z,67.74
2022-08-26T11:46:13.046Z,67.35
2022-08-26T11:47:16.062Z,67.05
2022-08-26T11:48:18.132Z,67.34
2022-08-26T11:49:17.617Z,67.62
2022-08-26T11:50:22.535Z,65.02
2022-08-26T11:51:24.697Z,65.13
2022-08-26T11:52:22.757Z,65.88
2022-08-26T11:53:23.377Z,64.76
2022-08-26T11:54:35.190Z,65.67
2022-08-26T11:55:29.842Z,65.6
2022-08-26T11:56:32.721Z,67.25
2022-08-26T11:57:33.755Z,67.47
2022-08-26T11:58:32.010Z,67.53
2022-08-26T11:59:36.939Z,68.44
2022-08-26T12:02:40.842Z,66.56
2022-08-26T12:04:45.639Z,64.59
2022-08-26T12:05:46.800Z,65.88
2022-08-26T12:06:50.231Z,65.22
2022-08-26T12:07:53.059Z,65.83
2022-08-26T12:08:52.054Z,65.33
2022-08-26T12:10:00.437Z,66.12
2022-08-26T12:12:59.242Z,66.17
2022-08-26T12:14:00.784Z,65.74
2022-08-26T12:16:01.208Z,64.83
2022-08-26T12:19:01.842Z,66.04
2022-08-26T12:20:02.368Z,66.6
2022-08-26T12:23:04.437Z,66.96
2022-08-26T12:24:04.840Z,68.87
2022-08-26T12:25:08.132Z,68.98
2022-08-26T12:28:11.528Z,66.18
2022-08-26T12:29:27.266Z,66.53
2022-08-26T12:30:26.148Z,65.22
2022-08-26T12:32:24.770Z,64.84
2022-08-26T12:33:24.473Z,64.87
2022-08-26T12:34:22.834Z,63.14
2022-08-26T12:35:23.467Z,63.84
2022-08-26T12:37:27.051Z,63.35
2022-08-26T12:38:27.060Z,62.53
2022-08-26T12:39:36.287Z,63.27
2022-08-26T12:40:41.008Z,63.68
2022-08-26T12:46:44.710Z,63.08
2022-08-26T12:47:46.174Z,63.17
2022-08-26T12:48:49.254Z,63.68
2022-08-26T12:49:47.000Z,64.39
2022-08-26T12:50:49.975Z,64.75
2022-08-26T12:51:50.497Z,64.38
2022-08-26T12:53:52.862Z,64.3
2022-08-26T12:54:56.892Z,64.24
2022-08-26T12:56:00.553Z,64.21
2022-08-26T12:57:08.962Z,63.83
2022-08-26T13:06:29.000Z,62.31
2022-08-26T13:07:27.246Z,61.26
2022-08-26T13:08:28.389Z,61.9
2022-08-26T13:09:31.160Z,62.39
2022-08-26T13:12:35.692Z,64.38
2022-08-26T13:13:34.350Z,65.63
2022-08-26T13:14:34.578Z,65.52
2022-08-26T13:15:34.980Z,65.91
2022-08-26T13:16:36.498Z,65.98
2022-08-26T13:17:35.926Z,66.35
2022-08-26T13:18:36.035Z,67.17
2022-08-26T13:19:36.547Z,65.21
2022-08-26T13:22:45.085Z,64.88
2022-08-26T13:23:50.404Z,65.74
2022-08-26T13:24:50.508Z,65.54
2022-08-26T13:25:51.128Z,65.26
2022-08-26T13:26:50.832Z,64.98
2022-08-26T13:27:50.731Z,65.45
2022-08-26T13:29:01.194Z,66.35
2022-08-26T13:29:55.684Z,65.32
2022-08-26T13:30:55.568Z,64.64
2022-08-26T13:31:56.373Z,65.29
2022-08-26T13:32:59.985Z,64.31
2022-08-26T13:33:59.587Z,64.44
2022-08-26T13:35:00.196Z,65.18
2022-08-26T13:36:03.991Z,65.33
2022-08-26T13:37:04.005Z,65.5
2022-08-26T13:38:04.214Z,64.81
2022-08-26T13:39:05.303Z,64.68
2022-08-26T13:40:06.649Z,64.46
2022-08-26T13:41:05.455Z,66.39
2022-08-26T13:42:05.666Z,64.94
2022-08-26T13:43:06.018Z,65.09
2022-08-26T13:44:06.706Z,65.56
2022-08-26T13:45:07.228Z,65.63
2022-08-26T13:46:06.725Z,65.36
2022-08-26T13:47:07.570Z,65.76
2022-08-26T13:48:08.074Z,64.76
2022-08-26T13:49:07.894Z,64.05
2022-08-26T13:50:08.824Z,63
2022-08-26T13:51:08.934Z,63.75
2022-08-26T13:52:09.021Z,62.24
2022-08-26T13:53:09.448Z,63.11
2022-08-26T13:54:09.436Z,63.41
2022-08-26T13:55:10.470Z,63.26
2022-08-26T13:56:11.125Z,63.7
2022-08-26T13:57:10.590Z,64.28
2022-08-26T13:58:11.825Z,65.45
2022-08-26T13:59:11.113Z,65.01
2022-08-26T14:00:12.770Z,64.8
2022-08-26T14:01:12.290Z,65.01
2022-08-26T14:02:12.456Z,64.41
2022-08-26T14:03:13.617Z,64.62
2022-08-26T14:04:13.190Z,64.02
2022-08-26T14:05:13.518Z,64.74
2022-08-26T14:06:14.129Z,63.39
2022-08-26T14:07:13.928Z,62.08
2022-08-26T14:08:14.548Z,62.78
2022-08-26T14:09:14.656Z,61.61
2022-08-26T14:10:14.860Z,61.95
2022-08-26T14:11:15.700Z,61.83
2022-08-26T14:12:15.698Z,61.79
2022-08-26T14:13:15.928Z,62.58
2022-08-26T14:14:16.837Z,62.18
2022-08-26T14:15:17.774Z,63.6
2022-08-26T14:16:25.828Z,63.88
2022-08-26T14:17:23.204Z,63.41
2022-08-26T14:18:28.128Z,63.97
2022-08-26T14:19:21.065Z,65.25
2022-08-26T14:20:29.169Z,64.66
2022-08-26T14:21:35.542Z,63.83
2022-08-26T14:22:28.358Z,64.06
2022-08-26T14:23:28.681Z,65.08
2022-08-26T14:24:29.810Z,65.05
2022-08-26T14:25:30.230Z,64.15
2022-08-26T14:26:30.123Z,63.97
2022-08-26T14:27:29.935Z,64.19
2022-08-26T14:28:30.349Z,64.48
2022-08-26T14:29:30.570Z,64.17
2022-08-26T14:30:32.198Z,64.01
2022-08-26T14:31:32.491Z,64.16
2022-08-26T14:32:31.912Z,64.31
2022-08-26T14:33:34.371Z,64.36
2022-08-26T14:34:32.650Z,64.73
2022-08-26T14:35:32.644Z,65
2022-08-26T14:36:33.586Z,64.9
2022-08-26T14:37:34.091Z,65.73
2022-08-26T14:38:33.899Z,65.67
2022-08-26T14:39:34.830Z,66.08
2022-08-26T14:40:37.536Z,66.17
2022-08-26T14:41:39.549Z,65.55
2022-08-26T14:42:37.295Z,66.59
2022-08-26T14:43:41.512Z,66.8
2022-08-26T14:44:43.688Z,66.35
2022-08-26T14:45:44.122Z,65.21
2022-08-26T14:46:45.733Z,66.22
2022-08-26T14:47:46.148Z,65.9
2022-08-26T14:48:43.685Z,66.01
2022-08-26T14:49:44.008Z,67.36
2022-08-26T14:50:45.128Z,67.26
2022-08-26T14:51:44.935Z,66.89
2022-08-26T14:52:45.270Z,65.88
2022-08-26T14:53:45.548Z,66.14
2022-08-26T14:54:46.088Z,65.41
2022-08-26T14:55:46.593Z,65.29
2022-08-26T14:56:52.646Z,65.3
2022-08-26T14:57:50.401Z,65.54
2022-08-26T14:58:50.528Z,65.64
2022-08-26T14:59:50.929Z,65.48
2022-08-26T15:00:51.250Z,64.77
2022-08-26T15:01:52.123Z,64.83
2022-08-26T15:02:52.196Z,64.08
2022-08-26T15:03:52.489Z,64.79
2022-08-26T15:04:52.908Z,65.23
2022-08-26T15:05:53.252Z,65.58
2022-08-26T15:06:54.770Z,66.44
2022-08-26T15:07:53.538Z,65.3
2022-08-26T15:08:54.265Z,65.06
2022-08-26T15:09:54.267Z,65.14
2022-08-26T15:10:54.789Z,66.41
2022-08-26T15:11:55.303Z,66.69
2022-08-26T15:12:55.550Z,66.69
2022-08-26T15:13:55.728Z,66.34
2022-08-26T15:14:56.147Z,65.8
2022-08-26T15:15:56.742Z,65.89
2022-08-26T15:16:57.699Z,66.08
2022-08-26T15:17:57.308Z,65.62
2022-08-26T15:18:58.028Z,65.85
2022-08-26T15:19:57.817Z,66
2022-08-26T15:20:58.048Z,66.2
2022-08-26T15:21:58.554Z,66.47
2022-08-26T15:23:03.333Z,66.18
2022-08-26T15:23:59.290Z,66.21
2022-08-26T15:24:59.290Z,66.38
2022-08-26T15:25:59.709Z,66.41
2022-08-26T15:27:00.011Z,66.58
2022-08-26T15:28:00.134Z,66.72
2022-08-26T15:29:04.703Z,66.85
2022-08-26T15:31:08.196Z,67.93
2022-08-26T15:32:07.728Z,67.24
2022-08-26T15:33:15.253Z,67.12
2022-08-26T15:34:14.511Z,67.22
2022-08-26T15:35:09.722Z,67.2
2022-08-26T15:36:10.530Z,67.66
2022-08-26T15:37:10.032Z,67.34
2022-08-26T15:38:10.984Z,67.71
2022-08-26T15:39:11.356Z,67
2022-08-26T15:40:11.873Z,67.01
2022-08-26T15:41:11.172Z,66.62
2022-08-26T15:42:11.378Z,66.54
2022-08-26T15:43:27.695Z,66.59
2022-08-26T15:44:16.830Z,67.28
2022-08-26T15:45:25.922Z,67.55
2022-08-26T15:46:20.508Z,67.61
2022-08-26T15:47:19.731Z,67.69
2022-08-26T15:48:20.122Z,68.79
2022-08-26T15:49:20.123Z,68.88
2022-08-26T15:50:20.642Z,69.34
2022-08-26T15:51:32.448Z,69.03
2022-08-26T15:52:25.510Z,68.85
2022-08-26T15:53:26.302Z,68.77
2022-08-26T15:54:25.788Z,68.75
2022-08-26T15:55:26.410Z,68.69
2022-08-26T15:56:28.469Z,68.71
2022-08-26T15:57:26.832Z,68.51
2022-08-26T15:58:28.279Z,69.28
2022-08-26T15:59:27.459Z,69.33
2022-08-26T16:00:27.693Z,69.64
2022-08-26T16:01:29.106Z,69.85
2022-08-26T16:02:32.199Z,69.97